createdAt,value
2024-05-09T00:06:04.808Z,1.90
2024-05-09T00:21:10.121Z,2.00
2024-05-09T00:36:13.822Z,2.10
2024-05-09T00:51:17.973Z,2.80
2024-05-09T01:06:22.194Z,2.30
2024-05-09T01:21:25.702Z,1.90
2024-05-09T01:36:29.330Z,2.10
2024-05-09T01:51:32.839Z,2.70
2024-05-09T02:06:42.962Z,2.10
2024-05-09T02:21:46.495Z,1.90
2024-05-09T02:36:50.214Z,4.60
2024-05-09T02:51:53.689Z,2.70
2024-05-09T03:06:57.198Z,2.30
2024-05-09T03:22:00.823Z,2.50
2024-05-09T03:37:04.623Z,2.00
2024-05-09T03:52:10.163Z,2.20
2024-05-09T04:07:13.781Z,2.20
2024-05-09T04:22:19.542Z,2.90
2024-05-09T04:37:23.425Z,2.30
2024-05-09T04:52:27.202Z,2.70
2024-05-09T05:07:32.470Z,3.00
2024-05-09T05:22:36.716Z,2.40
2024-05-09T05:37:44.343Z,2.60
2024-05-09T05:52:51.501Z,2.40
2024-05-09T06:07:57.439Z,2.40
2024-05-09T06:23:02.519Z,2.30
2024-05-09T06:38:10.775Z,1.60
2024-05-09T06:53:17.477Z,1.60
2024-05-09T07:08:21.792Z,2.20
2024-05-09T07:23:26.981Z,1.60
2024-05-09T07:38:30.734Z,2.40
2024-05-09T07:53:42.834Z,1.50
2024-05-09T08:08:50.296Z,1.90
2024-05-09T08:23:55.539Z,2.30
2024-05-09T08:38:59.699Z,2.40
2024-05-09T08:54:03.765Z,2.20
2024-05-09T09:09:10.329Z,1.90
2024-05-09T09:24:14.150Z,2.90
2024-05-09T09:39:23.588Z,2.20
2024-05-09T09:54:30.227Z,2.60
2024-05-09T10:09:35.500Z,2.10
2024-05-09T10:25:06.303Z,2.40
2024-05-09T10:40:25.915Z,2.30
2024-05-09T10:55:33.348Z,2.30
2024-05-09T11:10:39.637Z,2.70
2024-05-09T11:25:58.767Z,2.40
2024-05-09T11:41:05.378Z,2.60
2024-05-09T11:56:11.912Z,2.10
2024-05-09T12:11:17.049Z,2.70
2024-05-09T12:41:29.235Z,2.60
2024-05-09T12:56:34.435Z,2.50
2024-05-09T13:26:43.021Z,2.20
2024-05-09T13:41:48.212Z,2.20
2024-05-09T13:56:59.013Z,2.60
2024-05-09T14:12:03.230Z,2.30
2024-05-09T14:27:07.087Z,2.30
2024-05-09T14:42:11.946Z,2.10
2024-05-09T14:57:17.076Z,2.40
2024-05-09T15:12:24.424Z,2.00
2024-05-09T15:27:28.508Z,2.10
2024-05-09T15:42:32.374Z,1.90
2024-05-09T15:57:36.203Z,2.20
2024-05-09T16:12:39.975Z,1.70
2024-05-09T16:27:44.136Z,1.80
2024-05-09T16:42:48.689Z,1.90
2024-05-09T16:57:54.092Z,1.90
2024-05-09T17:12:58.491Z,2.00
2024-05-09T17:28:08.356Z,1.90
2024-05-09T17:43:13.202Z,2.10
2024-05-09T17:58:17.281Z,1.80
2024-05-09T18:13:21.451Z,1.70
2024-05-09T18:28:27.905Z,2.00
2024-05-09T18:43:38.393Z,1.90
2024-05-09T18:58:48.300Z,1.90
2024-05-09T19:13:51.970Z,5.90
2024-05-09T19:28:55.615Z,6.40
2024-05-09T19:43:59.188Z,5.70
2024-05-09T19:59:04.108Z,5.70
2024-05-09T20:14:07.697Z,6.80
2024-05-09T20:29:11.225Z,8.40
2024-05-09T20:44:14.916Z,6.70
2024-05-09T20:59:18.636Z,7.40
2024-05-09T21:14:22.527Z,6.40
2024-05-09T21:29:26.352Z,7.70
2024-05-09T21:44:30.410Z,7.90
2024-05-09T21:59:34.117Z,7.30
2024-05-09T22:14:37.743Z,6.30
2024-05-09T22:29:41.503Z,5.80
2024-05-09T22:44:45.019Z,5.50
2024-05-09T22:59:48.602Z,5.60
2024-05-09T23:14:52.293Z,5.30
2024-05-09T23:29:55.944Z,5.20
2024-05-09T23:45:01.072Z,4.50
